Time;durP1;ratioP1;P1;durP2;ratioP2;P2;SDS_P1;SDS_P2;PMS_P1;PMS_P2;Temp;Humidity;BMP_temperature;BMP_pressure;BME280_temperature;BME280_humidity;BME280_pressure;Samples;Min_cycle;Max_cycle;Signal;HPM_P1;HPM_P2
2022/08/17 00:01:27;;;;;;;2.47;1.40;;;20.00;99.90;;;;;;5067483;28;20223;-77
2022/08/17 00:03:54;;;;;;;1.67;1.33;;;20.00;99.90;;;;;;5049161;28;20650;-78
2022/08/17 00:06:28;;;;;;;1.73;1.40;;;20.00;99.90;;;;;;5079125;28;20233;-77
2022/08/17 00:08:59;;;;;;;3.40;1.40;;;20.00;99.90;;;;;;5067188;28;20202;-77
2022/08/17 00:11:34;;;;;;;2.07;1.43;;;19.90;99.90;;;;;;5084016;28;20214;-78
2022/08/17 00:14:15;;;;;;;2.20;1.30;;;19.90;99.90;;;;;;5062750;28;20191;-78
2022/08/17 00:16:50;;;;;;;2.67;1.50;;;19.90;99.90;;;;;;5049126;28;20214;-77
2022/08/17 00:19:23;;;;;;;2.37;1.43;;;19.80;99.90;;;;;;5065335;28;20221;-77
2022/08/17 00:21:55;;;;;;;1.60;1.40;;;19.70;99.90;;;;;;5065837;28;20336;-77
2022/08/17 00:24:23;;;;;;;3.33;2.00;;;19.70;99.90;;;;;;5065776;28;20187;-77
2022/08/17 00:26:49;;;;;;;4.63;2.00;;;19.70;99.90;;;;;;5074867;28;20236;-78
2022/08/17 00:29:16;;;;;;;4.20;2.17;;;19.70;99.90;;;;;;5070168;28;20191;-78
2022/08/17 00:31:42;;;;;;;2.57;2.17;;;19.70;99.90;;;;;;5066465;28;20552;-77
2022/08/17 00:34:08;;;;;;;3.93;2.23;;;19.80;99.90;;;;;;5067024;28;20644;-77
2022/08/17 00:36:38;;;;;;;4.17;2.20;;;19.80;99.90;;;;;;5082629;28;20209;-77
2022/08/17 00:39:05;;;;;;;3.20;2.03;;;19.80;99.90;;;;;;5064694;28;20226;-77
2022/08/17 00:41:34;;;;;;;3.47;2.10;;;19.80;99.90;;;;;;5066684;28;20248;-77
2022/08/17 00:44:04;;;;;;;4.37;2.10;;;19.80;99.90;;;;;;5066966;28;20510;-78
2022/08/17 00:46:39;;;;;;;4.07;2.10;;;19.80;99.90;;;;;;5082821;28;20640;-78
2022/08/17 00:49:07;;;;;;;5.07;2.27;;;19.80;99.90;;;;;;5056823;28;20190;-78
2022/08/17 00:51:52;;;;;;;4.07;2.20;;;19.80;99.90;;;;;;5067253;28;20222;-78
2022/08/17 00:54:27;;;;;;;3.33;2.10;;;19.90;99.90;;;;;;5079233;28;20194;-77
2022/08/17 00:57:18;;;;;;;4.87;2.50;;;19.90;99.90;;;;;;5049386;28;20191;-77
2022/08/17 01:00:07;;;;;;;5.47;2.50;;;19.90;99.90;;;;;;5060262;28;20211;-78
2022/08/17 01:02:39;;;;;;;4.33;2.23;;;19.80;99.90;;;;;;5065416;28;20179;-77
2022/08/17 01:05:11;;;;;;;3.97;2.27;;;19.80;99.90;;;;;;5068028;28;20660;-78
2022/08/17 01:07:38;;;;;;;5.33;2.33;;;19.80;99.90;;;;;;5052298;28;20293;-78
2022/08/17 01:10:10;;;;;;;3.20;2.20;;;19.80;99.90;;;;;;5081273;28;20202;-77
2022/08/17 01:12:37;;;;;;;4.83;2.20;;;19.80;99.90;;;;;;5067489;28;20277;-77
2022/08/17 01:15:05;;;;;;;4.57;2.63;;;19.80;99.90;;;;;;5067452;28;20191;-78
2022/08/17 01:17:33;;;;;;;4.00;2.57;;;19.80;99.90;;;;;;5068644;28;20228;-78
2022/08/17 01:19:59;;;;;;;4.20;2.67;;;19.90;99.90;;;;;;5066850;28;20222;-77
2022/08/17 01:22:26;;;;;;;4.57;2.60;;;19.90;99.90;;;;;;5069516;28;20183;-77
2022/08/17 01:25:09;;;;;;;5.13;2.60;;;19.90;99.90;;;;;;5068650;28;20187;-78
2022/08/17 01:27:37;;;;;;;5.10;3.10;;;20.00;99.90;;;;;;5082809;28;20521;-77
2022/08/17 01:30:11;;;;;;;6.33;3.23;;;20.00;99.90;;;;;;5048359;28;20703;-76
2022/08/17 01:32:39;;;;;;;3.80;3.37;;;20.10;99.90;;;;;;5072804;28;20818;-78
2022/08/17 01:35:07;;;;;;;4.53;3.50;;;20.10;99.90;;;;;;5072538;28;20206;-78
2022/08/17 01:37:41;;;;;;;4.33;3.13;;;20.20;99.90;;;;;;5074979;28;20198;-77
2022/08/17 01:40:52;;;;;;;4.40;3.27;;;20.20;99.90;;;;;;5074659;28;20270;-77
2022/08/17 01:43:27;;;;;;;5.67;3.70;;;20.20;99.90;;;;;;5014124;28;20192;-78
2022/08/17 01:45:55;;;;;;;5.47;3.37;;;20.20;99.90;;;;;;5014297;28;20188;-78
2022/08/17 01:48:23;;;;;;;4.97;3.73;;;20.20;99.90;;;;;;5038152;28;20780;-78
2022/08/17 01:50:51;;;;;;;5.30;3.97;;;20.30;99.90;;;;;;5064080;28;20190;-78
2022/08/17 01:53:25;;;;;;;5.50;4.13;;;20.30;99.90;;;;;;5074888;28;20186;-78
2022/08/17 01:55:56;;;;;;;5.23;4.00;;;20.30;99.90;;;;;;5076462;28;20186;-77
2022/08/17 01:58:26;;;;;;;5.50;4.37;;;20.30;99.90;;;;;;5072354;28;20214;-78
2022/08/17 02:00:54;;;;;;;5.27;4.03;;;20.30;99.90;;;;;;5076120;28;20366;-77
2022/08/17 02:03:23;;;;;;;6.47;3.97;;;20.40;99.90;;;;;;5090595;28;20263;-78
2022/08/17 02:05:52;;;;;;;7.13;4.20;;;20.40;99.90;;;;;;5083827;28;20209;-77
2022/08/17 02:08:20;;;;;;;4.00;3.50;;;20.40;99.90;;;;;;5074488;28;20544;-77
2022/08/17 02:10:49;;;;;;;7.50;4.00;;;20.40;99.90;;;;;;5074506;28;20183;-78
2022/08/17 02:13:16;;;;;;;6.20;4.20;;;20.40;99.90;;;;;;5073211;28;20183;-77
2022/08/17 02:15:43;;;;;;;8.57;4.87;;;20.40;99.90;;;;;;5075538;28;20209;-77
2022/08/17 02:18:12;;;;;;;8.33;4.80;;;20.40;99.90;;;;;;5073573;28;20183;-77
2022/08/17 02:20:41;;;;;;;9.20;5.37;;;20.50;99.90;;;;;;5073972;28;20187;-78
2022/08/17 02:23:11;;;;;;;6.60;4.77;;;20.50;99.90;;;;;;5058004;28;20988;-78
2022/08/17 02:25:42;;;;;;;6.90;4.87;;;20.50;99.90;;;;;;5075320;28;20178;-78
2022/08/17 02:28:09;;;;;;;6.50;4.50;;;20.50;99.90;;;;;;5057017;28;20193;-77
2022/08/17 02:30:38;;;;;;;6.43;4.63;;;20.50;99.90;;;;;;5075317;28;20665;-77
2022/08/17 02:33:07;;;;;;;6.93;5.17;;;20.50;99.90;;;;;;5075082;28;20187;-78
2022/08/17 02:35:36;;;;;;;5.87;4.53;;;20.50;99.90;;;;;;5076135;28;20229;-77
2022/08/17 02:38:06;;;;;;;4.97;4.30;;;20.50;99.90;;;;;;5073619;28;20820;-78
2022/08/17 02:40:33;;;;;;;6.93;4.50;;;20.50;99.90;;;;;;5075921;28;20222;-75
2022/08/17 02:43:00;;;;;;;7.40;3.87;;;20.50;99.90;;;;;;5091773;28;20587;-77
2022/08/17 02:45:26;;;;;;;5.13;4.07;;;20.30;99.90;;;;;;5088995;28;20197;-78
2022/08/17 02:47:53;;;;;;;7.77;4.13;;;20.30;99.90;;;;;;5071288;28;20171;-78
2022/08/17 02:50:24;;;;;;;6.20;3.83;;;20.30;99.90;;;;;;5086553;28;20278;-78
2022/08/17 02:52:52;;;;;;;5.27;3.90;;;20.20;99.90;;;;;;5055146;28;20186;-77
2022/08/17 02:55:24;;;;;;;7.93;4.20;;;20.10;99.90;;;;;;5071577;28;20183;-77
2022/08/17 02:57:52;;;;;;;5.03;3.80;;;20.10;99.90;;;;;;5069827;28;20663;-78
2022/08/17 03:00:34;;;;;;;6.67;3.63;;;20.10;99.90;;;;;;5068829;28;20219;-78
2022/08/17 03:03:05;;;;;;;4.07;3.63;;;20.00;99.90;;;;;;5070033;28;20191;-78
2022/08/17 03:05:36;;;;;;;5.40;3.70;;;19.90;99.90;;;;;;5072685;28;20240;-77
2022/08/17 03:08:04;;;;;;;4.93;3.57;;;19.90;99.90;;;;;;5071417;28;20175;-78
2022/08/17 03:10:32;;;;;;;6.47;3.77;;;19.80;99.90;;;;;;5069418;28;20210;-77
2022/08/17 03:13:00;;;;;;;5.37;3.77;;;19.80;99.90;;;;;;5070849;28;20178;-78
2022/08/17 03:15:31;;;;;;;5.23;3.80;;;19.70;99.90;;;;;;5086737;28;20190;-77
2022/08/17 03:17:58;;;;;;;4.37;3.30;;;19.80;99.90;;;;;;5069999;28;20253;-77
2022/08/17 03:20:30;;;;;;;8.87;3.80;;;19.70;99.90;;;;;;5068637;28;20240;-77
2022/08/17 03:22:58;;;;;;;4.77;3.03;;;19.70;99.90;;;;;;5069678;28;20187;-78
2022/08/17 03:25:35;;;;;;;4.63;3.30;;;19.70;99.90;;;;;;5049183;28;20171;-78
2022/08/17 03:28:04;;;;;;;4.73;2.80;;;19.80;99.90;;;;;;5068565;28;20555;-78
2022/08/17 03:30:31;;;;;;;5.60;3.20;;;20.00;99.90;;;;;;5069114;28;20191;-77
2022/08/17 03:33:02;;;;;;;6.53;3.23;;;20.10;99.90;;;;;;5070752;28;20183;-77
2022/08/17 03:35:39;;;;;;;5.30;3.33;;;20.10;99.90;;;;;;5070262;28;20652;-77
2022/08/17 03:38:07;;;;;;;5.47;3.20;;;20.10;99.90;;;;;;5070479;28;20179;-78
2022/08/17 03:40:34;;;;;;;6.60;3.20;;;20.20;99.90;;;;;;5070033;28;20193;-77
2022/08/17 03:43:09;;;;;;;7.30;3.33;;;20.20;99.90;;;;;;5069564;28;20182;-78
2022/08/17 03:57:04;;;;;;;5.00;2.80;;;20.00;99.90;;;;;;5068847;28;20677;-77
2022/08/17 03:59:31;;;;;;;5.80;3.03;;;20.00;99.90;;;;;;5085069;28;20754;-77
2022/08/17 04:02:08;;;;;;;4.10;3.00;;;20.00;99.90;;;;;;5067863;28;20187;-78
2022/08/17 04:04:36;;;;;;;5.60;3.07;;;20.00;99.90;;;;;;5068553;28;20196;-77
2022/08/17 04:07:02;;;;;;;3.57;3.10;;;20.00;99.90;;;;;;5070559;28;20175;-77
2022/08/17 04:09:29;;;;;;;3.50;2.60;;;20.00;99.90;;;;;;5070167;28;20186;-77
2022/08/17 04:11:56;;;;;;;3.97;3.10;;;19.90;99.90;;;;;;5069054;28;20182;-77
2022/08/17 04:14:23;;;;;;;4.47;2.80;;;19.90;99.90;;;;;;5069076;28;20209;-77
2022/08/17 04:16:49;;;;;;;4.23;2.93;;;19.90;99.90;;;;;;5047384;28;20183;-78
2022/08/17 04:19:15;;;;;;;4.17;2.80;;;19.90;99.90;;;;;;5069253;28;20675;-75
2022/08/17 04:21:42;;;;;;;4.00;3.27;;;19.80;99.90;;;;;;5065008;28;20694;-77
2022/08/17 04:24:09;;;;;;;4.50;3.13;;;19.90;99.90;;;;;;5078532;28;20699;-77
2022/08/17 04:26:36;;;;;;;4.57;2.80;;;19.90;99.90;;;;;;5069026;28;20185;-78
2022/08/17 04:29:03;;;;;;;3.37;3.07;;;20.00;99.90;;;;;;5067585;28;20801;-75
2022/08/17 04:31:29;;;;;;;3.70;3.10;;;20.00;99.90;;;;;;5052497;28;20200;-77
2022/08/17 04:33:55;;;;;;;3.73;3.33;;;20.10;99.90;;;;;;5068426;28;20285;-77
2022/08/17 04:36:23;;;;;;;4.50;3.40;;;20.20;99.90;;;;;;5067044;28;20179;-77
2022/08/17 04:38:49;;;;;;;5.60;3.20;;;20.20;99.90;;;;;;5083449;28;20199;-78
2022/08/17 04:44:03;;;;;;;5.87;4.10;;;20.40;99.90;;;;;;5069305;28;20182;-77
2022/08/17 04:46:34;;;;;;;6.60;4.10;;;20.50;99.90;;;;;;5051343;28;20181;-78
2022/08/17 04:49:07;;;;;;;4.10;3.50;;;20.60;99.90;;;;;;5069239;28;20631;-77
2022/08/17 04:51:40;;;;;;;6.33;3.87;;;20.60;99.90;;;;;;5075761;28;20191;-77
2022/08/17 04:54:17;;;;;;;6.23;3.93;;;20.70;99.90;;;;;;5046701;28;20190;-77
2022/08/17 04:56:44;;;;;;;4.57;3.87;;;20.80;99.90;;;;;;5050622;28;20182;-77
2022/08/17 04:59:17;;;;;;;3.50;3.20;;;20.80;99.90;;;;;;5084614;28;20207;-77
2022/08/17 05:01:48;;;;;;;6.93;3.60;;;20.90;99.90;;;;;;5070128;28;20262;-77
2022/08/17 05:04:20;;;;;;;6.23;3.73;;;21.00;99.90;;;;;;5069097;28;20194;-77
2022/08/17 05:06:48;;;;;;;5.70;3.30;;;21.20;99.90;;;;;;5085119;28;20179;-77
2022/08/17 05:09:16;;;;;;;5.60;3.50;;;21.40;99.90;;;;;;5085414;28;20598;-78
2022/08/17 05:11:44;;;;;;;6.53;3.03;;;21.70;99.90;;;;;;5068164;28;20232;-77
2022/08/17 05:14:11;;;;;;;4.60;3.00;;;21.80;99.90;;;;;;5068016;28;20187;-78
2022/08/17 05:16:38;;;;;;;6.37;3.10;;;22.00;99.90;;;;;;5065064;28;20286;-78
2022/08/17 05:19:04;;;;;;;3.67;2.70;;;22.20;99.90;;;;;;5071065;28;20215;-78
2022/08/17 05:21:31;;;;;;;3.93;2.77;;;22.30;99.90;;;;;;5068756;28;20223;-78
2022/08/17 05:23:57;;;;;;;3.30;2.80;;;22.40;99.90;;;;;;5068065;28;20187;-78
2022/08/17 05:26:26;;;;;;;5.03;2.83;;;22.60;99.90;;;;;;5069094;28;20183;-78
2022/08/17 05:28:57;;;;;;;4.90;2.77;;;22.60;99.90;;;;;;5085361;28;20285;-78
2022/08/17 05:31:24;;;;;;;2.85;2.53;;;22.60;99.90;;;;;;5068285;28;20210;-78
2022/08/17 05:33:51;;;;;;;4.33;2.50;;;22.60;99.90;;;;;;5067524;28;20261;-78
2022/08/17 05:36:21;;;;;;;6.53;3.20;;;22.70;99.90;;;;;;5069772;28;20194;-78
2022/08/17 05:38:47;;;;;;;4.00;2.40;;;22.90;99.90;;;;;;5055939;28;20229;-78
2022/08/17 05:41:14;;;;;;;3.47;2.80;;;23.00;99.90;;;;;;5068264;28;20179;-78
2022/08/17 05:43:41;;;;;;;5.93;2.72;;;23.00;99.90;;;;;;5069275;28;20605;-78
2022/08/17 05:46:21;;;;;;;4.10;2.50;;;23.00;99.90;;;;;;5068367;28;20187;-78
2022/08/17 05:48:56;;;;;;;4.28;2.53;;;23.00;99.90;;;;;;5060772;28;20186;-78
2022/08/17 05:51:49;;;;;;;5.25;2.40;;;22.90;99.90;;;;;;5068511;28;20320;-78
2022/08/17 05:55:08;;;;;;;4.13;2.67;;;22.90;99.90;;;;;;5069021;28;20228;-78
2022/08/17 05:58:10;;;;;;;3.53;2.53;;;23.00;99.90;;;;;;5068227;28;20189;-78
2022/08/17 06:01:14;;;;;;;10.38;3.00;;;23.10;99.90;;;;;;5070658;28;20190;-79
2022/08/17 06:04:34;;;;;;;5.28;2.58;;;23.20;99.90;;;;;;5036498;28;20198;-79
2022/08/17 06:07:15;;;;;;;5.30;2.65;;;23.20;99.90;;;;;;5008494;28;20372;-79
2022/08/17 06:10:09;;;;;;;4.30;2.88;;;23.30;99.90;;;;;;5065833;28;20212;-78
2022/08/17 06:13:25;;;;;;;7.45;2.67;;;23.40;99.90;;;;;;5067140;28;20191;-78
2022/08/17 06:16:11;;;;;;;7.25;2.80;;;23.50;99.90;;;;;;5060016;28;20636;-77
2022/08/17 06:19:12;;;;;;;4.20;2.60;;;23.60;99.90;;;;;;5049173;28;20203;-78
2022/08/17 06:21:46;;;;;;;7.65;2.95;;;24.10;99.90;;;;;;5079727;28;20624;-78
2022/08/17 06:25:25;;;;;;;4.15;2.67;;;24.10;99.90;;;;;;5073067;28;20183;-78
2022/08/17 06:28:04;;;;;;;5.57;2.72;;;24.30;99.90;;;;;;4982747;28;20204;-79
2022/08/17 06:30:47;;;;;;;3.40;2.60;;;24.30;99.90;;;;;;5088924;28;20187;-78
2022/08/17 06:33:22;;;;;;;9.45;2.78;;;24.30;99.90;;;;;;5073266;28;20198;-78
2022/08/17 06:36:11;;;;;;;4.05;2.90;;;24.50;99.90;;;;;;5068993;28;20206;-78
2022/08/17 06:39:18;;;;;;;4.30;2.72;;;24.60;99.90;;;;;;5054244;28;20214;-77
2022/08/17 06:42:20;;;;;;;2.53;2.30;;;24.70;99.90;;;;;;5030023;28;20190;-78
2022/08/17 06:45:21;;;;;;;4.85;2.55;;;24.90;99.90;;;;;;5069255;28;20174;-79
2022/08/17 06:49:06;;;;;;;8.18;3.03;;;25.00;99.90;;;;;;5066514;28;20194;-78
2022/08/17 06:52:09;;;;;;;7.82;3.03;;;25.10;99.90;;;;;;5063113;28;20197;-79
2022/08/17 06:55:04;;;;;;;6.95;2.75;;;25.30;99.90;;;;;;5052836;28;20194;-79
2022/08/17 06:57:37;;;;;;;3.50;2.40;;;25.50;99.90;;;;;;5067795;28;20194;-77
2022/08/17 07:00:25;;;;;;;7.75;2.70;;;25.60;99.90;;;;;;5066914;28;20204;-79
2022/08/17 07:03:05;;;;;;;4.55;2.72;;;25.60;99.90;;;;;;5064456;28;20584;-78
2022/08/17 07:05:51;;;;;;;9.57;2.85;;;25.60;99.90;;;;;;5079659;28;20186;-78
2022/08/17 07:08:33;;;;;;;3.67;2.50;;;25.70;99.90;;;;;;5054582;28;20183;-79
2022/08/17 07:11:24;;;;;;;6.35;2.33;;;25.80;99.90;;;;;;5072751;28;20214;-76
2022/08/17 07:14:17;;;;;;;4.20;2.83;;;26.40;99.90;;;;;;5070327;28;20175;-76
2022/08/17 07:16:50;;;;;;;7.47;2.80;;;26.40;99.90;;;;;;5082975;28;20226;-76
2022/08/17 07:19:21;;;;;;;4.80;2.72;;;26.40;99.90;;;;;;5070106;28;20210;-76
2022/08/17 07:22:01;;;;;;;4.28;2.97;;;26.40;99.90;;;;;;5085075;28;20178;-76
2022/08/17 07:24:58;;;;;;;4.38;2.40;;;26.40;99.90;;;;;;5069799;28;20178;-76
2022/08/17 07:27:35;;;;;;;5.22;2.58;;;26.40;99.90;;;;;;5052357;28;20563;-76
2022/08/17 07:30:25;;;;;;;4.35;2.70;;;26.40;99.90;;;;;;5078860;28;20199;-76
2022/08/17 07:33:07;;;;;;;4.28;2.13;;;26.60;99.90;;;;;;5045683;28;20213;-76
2022/08/17 07:35:41;;;;;;;3.03;2.33;;;26.70;99.90;;;;;;5067100;28;20179;-76
2022/08/17 07:38:27;;;;;;;3.15;2.38;;;26.80;99.90;;;;;;5081861;28;20259;-76
2022/08/17 07:41:07;;;;;;;3.33;2.10;;;26.80;99.90;;;;;;5067814;28;20187;-76
2022/08/17 07:43:40;;;;;;;3.53;2.33;;;26.90;99.90;;;;;;5061058;28;20206;-76
2022/08/17 07:49:36;;;;;;;6.35;2.95;;;27.20;99.90;;;;;;5063674;28;20179;-76
2022/08/17 07:52:31;;;;;;;4.00;2.55;;;27.50;99.90;;;;;;5065679;28;20183;-75
2022/08/17 07:55:21;;;;;;;4.82;3.20;;;27.60;99.90;;;;;;5057480;28;20187;-76
2022/08/17 07:57:57;;;;;;;5.85;3.10;;;27.60;99.90;;;;;;5078421;28;20183;-76
2022/08/17 08:00:23;;;;;;;3.47;2.67;;;27.70;99.90;;;;;;5067326;28;20629;-76
2022/08/17 08:03:21;;;;;;;5.50;3.10;;;27.70;99.90;;;;;;5067465;28;20201;-76
2022/08/17 08:06:01;;;;;;;7.32;3.30;;;27.80;99.90;;;;;;5063704;28;20279;-78
2022/08/17 08:08:41;;;;;;;8.23;3.25;;;27.90;99.90;;;;;;5084013;28;20540;-76
2022/08/17 08:11:29;;;;;;;3.97;3.17;;;27.90;99.90;;;;;;5047663;28;20255;-78
2022/08/17 08:14:19;;;;;;;7.82;3.30;;;27.90;99.90;;;;;;5079927;28;20221;-77
2022/08/17 08:17:06;;;;;;;5.57;3.70;;;27.90;99.90;;;;;;5069040;28;20190;-77
2022/08/17 08:19:34;;;;;;;4.97;3.25;;;27.90;99.90;;;;;;5065151;28;20233;-78
2022/08/17 08:22:21;;;;;;;8.32;3.88;;;28.10;99.90;;;;;;5067620;28;20262;-78
2022/08/17 08:25:22;;;;;;;4.82;3.42;;;28.00;99.90;;;;;;5065118;28;20641;-78
2022/08/17 08:28:08;;;;;;;5.72;3.80;;;28.20;99.90;;;;;;5052589;28;20190;-78
2022/08/17 08:30:45;;;;;;;5.95;3.75;;;28.10;99.90;;;;;;5064666;28;20220;-78
2022/08/17 08:33:53;;;;;;;7.07;3.95;;;28.10;99.90;;;;;;5072722;28;20198;-78
2022/08/17 08:37:00;;;;;;;5.03;3.60;;;28.20;99.90;;;;;;5088039;28;20186;-78
2022/08/17 08:39:43;;;;;;;4.70;3.05;;;28.30;99.90;;;;;;5068212;28;20894;-78
2022/08/17 08:42:25;;;;;;;11.27;3.95;;;28.40;99.90;;;;;;5066335;28;20628;-78
2022/08/17 08:45:49;;;;;;;9.25;4.28;;;28.50;99.90;;;;;;5054139;28;20181;-78
2022/08/17 08:49:04;;;;;;;4.78;3.58;;;28.60;99.90;;;;;;5067660;28;20617;-77
2022/08/17 08:51:45;;;;;;;7.35;3.70;;;28.70;99.90;;;;;;5085406;28;20183;-77
2022/08/17 08:54:44;;;;;;;4.28;3.45;;;28.70;99.90;;;;;;5063620;28;20186;-77
2022/08/17 08:57:24;;;;;;;5.38;3.47;;;28.80;99.90;;;;;;5079030;28;20194;-77
2022/08/17 09:00:17;;;;;;;9.45;3.40;;;29.00;99.90;;;;;;5064399;28;20214;-77
2022/08/17 09:03:07;;;;;;;5.60;3.53;;;29.20;99.90;;;;;;5082551;28;20191;-77
2022/08/17 09:05:59;;;;;;;4.45;3.20;;;29.20;99.90;;;;;;5050532;28;20187;-77
2022/08/17 09:08:57;;;;;;;6.57;3.50;;;29.30;99.90;;;;;;5068472;28;20543;-78
2022/08/17 09:11:47;;;;;;;4.45;3.38;;;29.40;99.90;;;;;;5062384;28;20214;-77
2022/08/17 09:14:45;;;;;;;8.55;3.28;;;29.50;99.90;;;;;;5065351;28;20717;-77
2022/08/17 09:17:34;;;;;;;6.47;3.15;;;29.60;99.90;;;;;;5066013;28;20190;-77
2022/08/17 09:20:34;;;;;;;5.50;3.45;;;29.60;99.90;;;;;;5047787;28;20241;-77
2022/08/17 09:23:41;;;;;;;9.60;3.53;;;29.70;99.90;;;;;;5066641;28;20194;-76
2022/08/17 09:26:24;;;;;;;4.40;3.03;;;29.80;99.90;;;;;;5078151;28;20182;-76
2022/08/17 09:29:05;;;;;;;5.07;3.60;;;29.90;99.90;;;;;;5080065;28;20190;-77
2022/08/17 09:31:57;;;;;;;4.93;3.40;;;30.00;99.90;;;;;;5064490;28;20190;-77
2022/08/17 09:34:58;;;;;;;5.40;2.97;;;30.20;99.90;;;;;;5065921;28;20182;-76
2022/08/17 09:37:55;;;;;;;6.32;3.15;;;30.30;99.90;;;;;;5064393;28;20186;-76
2022/08/17 09:40:51;;;;;;;6.45;3.15;;;30.40;99.90;;;;;;5066106;28;20211;-77
2022/08/17 09:44:01;;;;;;;6.47;3.47;;;30.50;99.90;;;;;;5065309;28;20183;-77
2022/08/17 09:47:09;;;;;;;14.25;3.80;;;30.70;99.90;;;;;;5061092;28;20286;-77
2022/08/17 09:49:59;;;;;;;5.25;3.47;;;30.70;99.90;;;;;;5067214;28;20195;-77
2022/08/17 09:52:31;;;;;;;7.47;3.15;;;30.70;99.90;;;;;;5058280;28;20601;-77
2022/08/17 09:55:00;;;;;;;11.13;3.50;;;30.90;99.90;;;;;;5049455;28;20698;-78
2022/08/17 09:58:21;;;;;;;5.30;2.90;;;31.00;99.90;;;;;;5055001;28;20194;-76
2022/08/17 10:01:01;;;;;;;8.77;3.80;;;31.10;99.90;;;;;;5089083;28;20187;-78
2022/08/17 10:04:25;;;;;;;6.85;3.85;;;31.20;99.90;;;;;;5085971;28;20230;-78
2022/08/17 10:07:12;;;;;;;6.18;3.75;;;31.30;99.90;;;;;;5086083;28;20241;-77
2022/08/17 10:09:54;;;;;;;5.95;3.40;;;31.20;99.90;;;;;;5073215;28;20197;-78
2022/08/17 10:12:53;;;;;;;5.20;3.53;;;31.30;99.90;;;;;;5071078;28;20195;-79
2022/08/17 10:16:06;;;;;;;7.95;3.97;;;31.40;99.90;;;;;;5070840;28;20191;-77
2022/08/17 10:18:45;;;;;;;7.10;3.90;;;31.30;99.90;;;;;;5053476;28;20199;-78
2022/08/17 10:27:03;;;;;;;8.65;4.00;;;31.50;99.90;;;;;;5068615;28;20270;-76
2022/08/17 10:29:49;;;;;;;7.80;3.45;;;31.50;99.90;;;;;;5063933;28;20283;-77
2022/08/17 10:32:49;;;;;;;7.75;3.80;;;31.50;99.90;;;;;;5070375;28;20199;-77
2022/08/17 10:35:51;;;;;;;7.57;4.03;;;31.60;99.90;;;;;;5042011;28;20549;-77
2022/08/17 10:38:45;;;;;;;4.32;3.90;;;31.60;99.90;;;;;;5066721;28;20190;-77
2022/08/17 10:41:49;;;;;;;10.10;4.00;;;31.40;99.90;;;;;;5066256;28;20236;-77
2022/08/17 10:44:34;;;;;;;8.00;4.05;;;31.40;99.90;;;;;;5065207;28;20191;-78
2022/08/17 10:47:15;;;;;;;13.25;3.90;;;31.50;99.90;;;;;;5069294;28;20574;-79
2022/08/17 10:49:54;;;;;;;6.60;3.30;;;31.50;99.90;;;;;;5066286;28;20267;-77
2022/08/17 10:52:29;;;;;;;6.47;4.00;;;31.60;99.90;;;;;;5081727;28;20218;-78
2022/08/17 10:54:55;;;;;;;9.35;3.85;;;31.70;99.90;;;;;;5068860;28;20206;-77
2022/08/17 10:57:43;;;;;;;8.07;4.03;;;31.70;99.90;;;;;;5049736;28;20178;-77
2022/08/17 11:00:28;;;;;;;9.30;3.97;;;31.70;99.90;;;;;;5085657;28;20241;-78
2022/08/17 11:02:59;;;;;;;9.20;3.85;;;31.60;99.90;;;;;;5058998;28;20198;-78
2022/08/17 11:05:58;;;;;;;6.30;3.83;;;31.50;99.90;;;;;;5065200;28;20183;-77
2022/08/17 11:08:31;;;;;;;8.40;4.00;;;31.60;99.90;;;;;;5066529;28;20179;-77
2022/08/17 11:11:23;;;;;;;6.88;3.92;;;31.70;99.90;;;;;;5065731;28;20179;-77
2022/08/17 11:14:29;;;;;;;4.97;3.80;;;31.70;99.90;;;;;;5062497;28;20198;-77
2022/08/17 11:17:36;;;;;;;7.82;4.47;;;31.50;99.90;;;;;;5068221;28;20183;-77
2022/08/17 11:20:38;;;;;;;9.55;4.90;;;31.50;99.90;;;;;;5066207;28;20210;-77
2022/08/17 11:23:52;;;;;;;8.20;5.13;;;31.50;99.90;;;;;;5069488;28;20191;-78
2022/08/17 11:26:34;;;;;;;9.05;5.03;;;31.50;99.90;;;;;;5083527;28;20304;-78
2022/08/17 11:29:22;;;;;;;11.07;5.25;;;31.50;99.90;;;;;;5065503;28;20183;-77
2022/08/17 11:32:12;;;;;;;8.68;5.35;;;31.30;99.90;;;;;;5062454;28;20320;-77
2022/08/17 11:34:45;;;;;;;6.93;5.07;;;31.20;99.90;;;;;;5062216;28;20281;-77
2022/08/17 11:37:23;;;;;;;7.55;5.18;;;31.20;99.90;;;;;;5076569;28;20217;-77
2022/08/17 11:40:45;;;;;;;7.53;5.05;;;31.10;99.90;;;;;;5080340;28;20211;-77
2022/08/17 11:43:57;;;;;;;9.23;4.85;;;31.20;99.90;;;;;;5064661;28;20198;-78
2022/08/17 11:53:06;;;;;;;6.63;4.75;;;31.70;99.90;;;;;;5069668;28;20206;-77
2022/08/17 11:55:38;;;;;;;8.45;5.57;;;31.60;99.90;;;;;;5087547;28;20186;-76
2022/08/17 11:58:54;;;;;;;6.20;4.88;;;31.40;99.90;;;;;;5050928;28;20183;-77
2022/08/17 12:01:25;;;;;;;9.55;5.40;;;31.30;99.90;;;;;;5063010;28;20195;-77
2022/08/17 12:04:27;;;;;;;8.90;4.90;;;31.30;99.90;;;;;;5063736;28;20225;-76
2022/08/17 12:07:12;;;;;;;6.03;5.05;;;31.20;99.90;;;;;;5055308;28;20226;-77
2022/08/17 12:09:46;;;;;;;6.75;5.35;;;31.20;99.90;;;;;;5062267;28;20179;-77
2022/08/17 12:12:21;;;;;;;7.88;5.15;;;31.20;99.90;;;;;;5069970;28;20265;-76
2022/08/17 12:15:00;;;;;;;6.03;5.30;;;31.20;99.90;;;;;;5067941;28;20185;-76
2022/08/17 12:17:30;;;;;;;5.38;4.88;;;31.20;99.90;;;;;;5065012;28;20187;-78
2022/08/17 12:20:32;;;;;;;7.88;4.72;;;31.30;99.90;;;;;;5050237;28;20213;-77
2022/08/17 12:23:37;;;;;;;5.55;4.93;;;31.30;99.90;;;;;;5076695;28;20205;-76
2022/08/17 12:26:26;;;;;;;6.72;4.70;;;31.20;99.90;;;;;;5060691;28;20274;-77
2022/08/17 12:29:13;;;;;;;7.75;4.93;;;31.10;99.90;;;;;;5055360;28;20271;-78
2022/08/17 12:31:53;;;;;;;5.43;4.72;;;31.10;99.90;;;;;;5064973;28;20594;-77
2022/08/17 12:34:37;;;;;;;5.47;4.50;;;30.90;99.90;;;;;;5049793;28;20698;-77
2022/08/17 12:37:21;;;;;;;5.95;4.13;;;31.00;99.90;;;;;;5066748;28;20201;-77
2022/08/17 12:40:28;;;;;;;7.65;4.45;;;31.00;99.90;;;;;;5065609;28;20206;-77
2022/08/17 12:43:16;;;;;;;7.72;4.47;;;30.80;99.90;;;;;;5049314;28;20194;-76
2022/08/17 12:45:55;;;;;;;5.97;4.30;;;30.70;99.90;;;;;;5053723;28;21054;-77
2022/08/17 12:48:26;;;;;;;5.05;4.10;;;30.80;99.90;;;;;;5066859;28;20254;-77
2022/08/17 12:51:01;;;;;;;7.22;4.43;;;30.80;99.90;;;;;;5083600;28;20266;-77
2022/08/17 12:53:36;;;;;;;7.82;4.55;;;30.70;99.90;;;;;;5066713;28;20208;-77
2022/08/17 12:56:11;;;;;;;5.78;4.32;;;30.60;99.90;;;;;;5062439;28;20190;-77
2022/08/17 12:58:52;;;;;;;5.90;4.10;;;30.70;99.90;;;;;;5066044;28;20186;-76
2022/08/17 13:01:23;;;;;;;7.63;4.10;;;30.80;99.90;;;;;;5065760;28;20194;-76
2022/08/17 13:03:59;;;;;;;5.85;3.75;;;30.90;99.90;;;;;;5073586;28;20198;-76
2022/08/17 13:06:34;;;;;;;4.97;3.95;;;30.70;99.90;;;;;;5050582;28;20741;-76
2022/08/17 13:09:23;;;;;;;11.07;3.92;;;30.60;99.90;;;;;;5084712;28;20247;-76
2022/08/17 13:11:54;;;;;;;5.32;3.80;;;30.60;99.90;;;;;;5065195;28;20193;-76
2022/08/17 13:14:21;;;;;;;6.82;4.00;;;30.50;99.90;;;;;;5068225;28;20317;-76
2022/08/17 13:16:58;;;;;;;4.85;3.65;;;30.40;99.90;;;;;;5031691;28;20194;-77
2022/08/17 13:19:31;;;;;;;6.05;3.80;;;30.60;99.90;;;;;;5048501;28;20560;-77
2022/08/17 13:22:01;;;;;;;9.05;3.90;;;30.60;99.90;;;;;;5084174;28;20247;-76
2022/08/17 13:24:33;;;;;;;7.10;4.20;;;30.50;99.90;;;;;;5084992;28;20600;-76
2022/08/17 13:27:07;;;;;;;7.57;3.70;;;30.50;99.90;;;;;;5067761;28;20190;-76
2022/08/17 13:29:44;;;;;;;6.68;3.80;;;30.50;99.90;;;;;;5075003;28;20638;-77
2022/08/17 13:32:14;;;;;;;6.03;3.80;;;30.60;99.90;;;;;;5067670;28;20182;-77
2022/08/17 13:34:45;;;;;;;8.50;3.47;;;30.60;99.90;;;;;;5067902;28;20175;-75
2022/08/17 13:37:27;;;;;;;7.82;3.58;;;30.50;99.90;;;;;;5080901;28;20190;-76
2022/08/17 13:40:09;;;;;;;5.07;3.40;;;30.60;99.90;;;;;;5045378;28;20237;-76
2022/08/17 13:42:46;;;;;;;3.55;3.10;;;30.60;99.90;;;;;;5049236;28;20186;-76
2022/08/17 13:45:33;;;;;;;5.65;3.42;;;30.50;99.90;;;;;;5049586;28;20604;-76
2022/08/17 13:48:09;;;;;;;11.98;3.80;;;30.50;99.90;;;;;;5058023;28;20252;-76
2022/08/17 13:50:44;;;;;;;8.10;3.22;;;30.50;99.90;;;;;;5053151;28;20183;-77
2022/08/17 13:53:50;;;;;;;8.43;3.28;;;30.40;99.90;;;;;;5067039;28;20216;-76
2022/08/17 13:56:44;;;;;;;4.75;2.85;;;30.30;99.90;;;;;;5071274;28;20289;-77
2022/08/17 13:59:23;;;;;;;7.57;2.97;;;30.30;99.90;;;;;;5063284;28;20260;-76
2022/08/17 14:01:50;;;;;;;6.45;3.30;;;30.30;99.90;;;;;;5066405;28;20545;-76
2022/08/17 14:04:30;;;;;;;6.47;3.00;;;30.30;99.90;;;;;;5063129;28;20562;-76
2022/08/17 14:07:30;;;;;;;6.70;3.25;;;30.30;99.90;;;;;;5066125;28;20187;-77
2022/08/17 14:10:16;;;;;;;5.90;2.55;;;30.30;99.90;;;;;;5078425;28;20801;-77
2022/08/17 14:12:45;;;;;;;3.65;2.53;;;30.40;99.90;;;;;;5066293;28;20197;-77
2022/08/17 14:15:26;;;;;;;5.22;2.92;;;30.30;99.90;;;;;;5081443;28;20278;-77
2022/08/17 14:17:52;;;;;;;3.75;2.58;;;30.10;99.90;;;;;;5072221;28;20884;-77
2022/08/17 14:20:21;;;;;;;4.47;2.75;;;30.10;99.90;;;;;;5066912;28;20222;-77
2022/08/17 14:22:54;;;;;;;5.28;2.63;;;30.10;99.90;;;;;;5066176;28;20183;-77